Terminal Aerodrome Forecast
Issued by NWS

Home | Current Version | Previous Version | Text Only | Print | Product List | Glossary On
Versions: 1 2 3 4 5 6 7 8 9 10 11 12 13 14 15 16
000
FTUS43 KUNR 302300
TAFGCC
TAF
KGCC 302320Z 3100/3124 34012G22KT P6SM TSRA BKN080CB OVC150
     FM310500 25006KT P6SM SCT015 OVC050
     FM311300 33009KT P6SM OVC040
     FM311400 33012KT P6SM -TSRA OVC050CB=

USA.gov is the U.S. government's official web portal to all federal, state and local government web resources and services.